createdAt,value
2018-11-21T00:01:17.897Z,20.30
2018-11-21T00:03:56.445Z,23.52
2018-11-21T00:06:36.081Z,24.47
2018-11-21T00:09:16.107Z,23.90
2018-11-21T00:11:55.481Z,16.45
2018-11-21T00:14:35.328Z,21.15
2018-11-21T00:17:14.976Z,27.02
2018-11-21T00:19:54.592Z,21.60
2018-11-21T00:22:34.428Z,24.10
2018-11-21T00:25:15.528Z,23.05
2018-11-21T00:27:55.419Z,26.37
2018-11-21T00:30:35.266Z,28.98
2018-11-21T00:33:17.226Z,21.05
2018-11-21T00:35:57.266Z,23.70
2018-11-21T00:38:36.807Z,24.37
2018-11-21T00:41:16.417Z,22.40
2018-11-21T00:43:56.240Z,26.62
2018-11-21T00:46:35.798Z,31.90
2018-11-21T00:49:15.634Z,22.67
2018-11-21T00:51:55.428Z,31.27
2018-11-21T00:54:35.999Z,19.50
2018-11-21T00:57:15.946Z,28.02
2018-11-21T00:59:55.675Z,22.55
2018-11-21T01:02:35.503Z,22.58
2018-11-21T01:05:15.055Z,27.35
2018-11-21T01:07:54.789Z,26.50
2018-11-21T01:10:34.655Z,24.47
2018-11-21T01:13:14.703Z,23.05
2018-11-21T01:15:54.962Z,23.87
2018-11-21T01:18:34.690Z,20.60
2018-11-21T01:21:14.363Z,25.12
2018-11-21T01:23:41.633Z,23.65
2018-11-21T01:26:21.945Z,23.50
2018-11-21T01:29:01.843Z,24.30
2018-11-21T01:31:41.577Z,20.48
2018-11-21T01:34:21.298Z,25.12
2018-11-21T01:37:03.490Z,23.60
2018-11-21T01:39:43.878Z,19.98
2018-11-21T01:42:24.374Z,22.40
2018-11-21T01:45:04.536Z,19.92
2018-11-21T01:47:44.040Z,28.55
2018-11-21T01:50:23.862Z,18.07
2018-11-21T01:53:03.977Z,19.75
2018-11-21T01:55:44.054Z,18.57
2018-11-21T01:58:23.940Z,20.05
2018-11-21T02:01:03.726Z,17.92
2018-11-21T02:03:43.784Z,19.40
2018-11-21T02:06:23.838Z,23.67
2018-11-21T02:09:04.254Z,22.22
2018-11-21T02:11:43.739Z,25.40
2018-11-21T02:14:23.498Z,18.27
2018-11-21T02:17:03.123Z,17.87
2018-11-21T02:19:42.883Z,22.98
2018-11-21T02:22:22.727Z,20.12
2018-11-21T02:25:02.521Z,19.67
2018-11-21T02:27:42.155Z,19.32
2018-11-21T02:30:22.021Z,25.70
2018-11-21T02:33:02.082Z,17.57
2018-11-21T02:35:41.740Z,19.77
2018-11-21T02:38:21.557Z,18.42
2018-11-21T02:41:01.562Z,21.97
2018-11-21T02:43:41.322Z,26.68
2018-11-21T02:46:21.035Z,20.02
2018-11-21T02:49:00.585Z,17.05
2018-11-21T02:51:40.337Z,19.37
2018-11-21T02:54:20.154Z,17.73
2018-11-21T02:56:59.929Z,17.87
2018-11-21T02:59:39.457Z,17.77
2018-11-21T03:02:18.961Z,15.48
2018-11-21T03:04:58.797Z,15.35
2018-11-21T03:07:48.426Z,18.12
2018-11-21T03:10:28.394Z,18.52
2018-11-21T03:13:07.964Z,20.43
2018-11-21T03:15:47.416Z,17.05
2018-11-21T03:18:29.625Z,19.07
2018-11-21T03:21:09.517Z,19.02
2018-11-21T03:23:49.519Z,17.55
2018-11-21T03:26:29.521Z,22.90
2018-11-21T03:29:09.367Z,19.77
2018-11-21T03:31:49.229Z,15.25
2018-11-21T03:34:28.959Z,27.10
2018-11-21T03:37:08.509Z,19.73
2018-11-21T03:39:48.144Z,20.17
2018-11-21T03:42:28.617Z,20.05
2018-11-21T03:45:09.023Z,19.12
2018-11-21T03:47:49.509Z,21.07
2018-11-21T03:50:28.974Z,13.83
2018-11-21T03:53:08.774Z,15.78
2018-11-21T03:55:48.218Z,14.03
2018-11-21T03:58:31.017Z,18.45
2018-11-21T04:01:10.906Z,14.23
2018-11-21T04:03:50.648Z,14.28
2018-11-21T04:06:30.466Z,17.35
2018-11-21T04:09:11.473Z,15.68
2018-11-21T04:11:51.773Z,12.88
2018-11-21T04:14:31.654Z,19.40
2018-11-21T04:17:11.541Z,15.35
2018-11-21T04:19:51.455Z,16.12
2018-11-21T04:22:32.740Z,11.73
2018-11-21T04:25:12.195Z,13.53
2018-11-21T04:27:51.920Z,14.25
2018-11-21T04:30:31.563Z,16.60
2018-11-21T04:33:11.476Z,14.53
2018-11-21T04:35:51.140Z,17.77
2018-11-21T04:38:30.902Z,19.60
2018-11-21T04:41:10.731Z,22.85
2018-11-21T04:43:50.255Z,17.23
2018-11-21T04:46:29.858Z,16.90
2018-11-21T04:49:09.720Z,17.15
2018-11-21T04:51:49.551Z,15.38
2018-11-21T04:54:29.606Z,17.10
2018-11-21T04:57:09.470Z,18.15
2018-11-21T04:59:49.448Z,18.25
2018-11-21T05:02:28.992Z,18.52
2018-11-21T05:05:09.829Z,15.65
2018-11-21T05:07:52.003Z,17.40
2018-11-21T05:10:32.418Z,17.45
2018-11-21T05:13:12.173Z,17.73
2018-11-21T05:15:52.397Z,22.42
2018-11-21T05:18:32.060Z,19.42
2018-11-21T05:21:11.629Z,25.88
2018-11-21T05:23:51.504Z,23.07
2018-11-21T05:26:31.325Z,22.62
2018-11-21T05:29:11.227Z,18.57
2018-11-21T05:31:51.180Z,23.40
2018-11-21T05:34:30.766Z,26.07
2018-11-21T05:37:10.411Z,19.50
2018-11-21T05:39:50.129Z,22.22
2018-11-21T05:42:30.120Z,17.37
2018-11-21T05:45:10.447Z,19.90
2018-11-21T05:47:50.554Z,16.87
2018-11-21T05:50:30.134Z,17.12
2018-11-21T05:53:10.060Z,17.00
2018-11-21T05:55:49.749Z,20.12
2018-11-21T05:58:29.215Z,18.45
2018-11-21T06:01:09.173Z,21.02
2018-11-21T06:03:48.774Z,17.57
2018-11-21T06:06:28.467Z,18.05
2018-11-21T06:09:08.423Z,23.80
2018-11-21T06:11:49.435Z,23.62
2018-11-21T06:14:27.887Z,23.55
2018-11-21T06:17:07.728Z,23.25
2018-11-21T06:19:47.347Z,23.10
2018-11-21T06:22:26.876Z,24.27
2018-11-21T06:25:07.876Z,41.85
2018-11-21T06:27:47.749Z,35.83
2018-11-21T06:30:27.484Z,31.93
2018-11-21T06:33:07.956Z,37.35
2018-11-21T06:35:48.179Z,36.95
2018-11-21T06:38:27.919Z,30.25
2018-11-21T06:41:07.449Z,30.02
2018-11-21T06:43:47.595Z,29.82
2018-11-21T06:46:27.272Z,26.85
2018-11-21T06:49:07.257Z,29.72
2018-11-21T06:51:47.451Z,32.55
2018-11-21T06:54:27.433Z,29.87
2018-11-21T06:57:07.126Z,29.48
2018-11-21T06:59:47.144Z,33.70
2018-11-21T07:02:26.906Z,34.63
2018-11-21T07:05:07.300Z,38.30
2018-11-21T07:07:46.841Z,68.40
2018-11-21T07:10:26.770Z,61.60
2018-11-21T07:13:10.944Z,44.27
2018-11-21T07:15:46.640Z,42.00
2018-11-21T07:18:26.764Z,40.43
2018-11-21T07:21:06.488Z,39.58
2018-11-21T07:23:46.166Z,36.75
2018-11-21T07:26:26.119Z,31.45
2018-11-21T07:29:06.274Z,30.60
2018-11-21T07:31:46.005Z,43.85
2018-11-21T07:34:25.939Z,36.33
2018-11-21T07:37:06.062Z,34.15
2018-11-21T07:39:45.837Z,38.25
2018-11-21T07:42:25.679Z,37.48
2018-11-21T07:45:05.497Z,36.35
2018-11-21T07:47:45.936Z,37.98
2018-11-21T07:50:25.708Z,35.00
2018-11-21T07:53:05.403Z,38.35
2018-11-21T07:55:45.225Z,51.30
2018-11-21T07:58:25.827Z,36.00
2018-11-21T08:01:10.751Z,32.67
2018-11-21T08:03:59.783Z,32.80
2018-11-21T08:06:52.155Z,34.83
2018-11-21T08:09:44.556Z,32.33
2018-11-21T08:12:43.570Z,41.10
2018-11-21T08:15:43.344Z,42.37
2018-11-21T08:18:48.527Z,34.50
2018-11-21T08:21:51.196Z,37.53
2018-11-21T08:24:50.297Z,34.73
2018-11-21T08:27:39.415Z,30.80
2018-11-21T08:30:19.424Z,33.70
2018-11-21T08:32:59.214Z,35.67
2018-11-21T08:35:39.040Z,35.90
2018-11-21T08:38:18.713Z,38.37
2018-11-21T08:40:58.294Z,32.60
2018-11-21T08:43:38.552Z,34.50
2018-11-21T08:46:18.393Z,35.33
2018-11-21T08:48:58.290Z,32.20
2018-11-21T08:51:38.417Z,33.70
2018-11-21T08:54:18.022Z,36.30
2018-11-21T08:56:57.615Z,30.73
2018-11-21T08:59:37.766Z,31.70
2018-11-21T09:02:17.534Z,34.60
2018-11-21T09:04:57.299Z,37.23
2018-11-21T09:07:38.277Z,31.33
2018-11-21T09:10:18.233Z,36.13
2018-11-21T09:12:58.002Z,31.10
2018-11-21T09:15:37.613Z,35.43
2018-11-21T09:18:17.253Z,35.67
2018-11-21T09:20:57.127Z,31.37
2018-11-21T09:23:36.738Z,37.07
2018-11-21T09:26:16.733Z,34.30
2018-11-21T09:28:56.504Z,33.90
2018-11-21T09:31:36.216Z,30.23
2018-11-21T09:34:16.002Z,37.07
2018-11-21T09:36:55.972Z,34.17
2018-11-21T09:39:35.805Z,39.90
2018-11-21T09:42:15.327Z,32.37
2018-11-21T09:44:55.105Z,36.17
2018-11-21T09:47:34.819Z,36.73
2018-11-21T09:50:18.768Z,34.73
2018-11-21T09:52:58.720Z,33.30
2018-11-21T09:55:40.541Z,34.80
2018-11-21T09:58:17.969Z,34.17
2018-11-21T10:00:57.426Z,34.53
2018-11-21T10:03:38.205Z,32.67
2018-11-21T10:06:18.100Z,34.53
2018-11-21T10:09:18.766Z,46.10
2018-11-21T10:11:58.883Z,38.80
2018-11-21T10:14:38.340Z,41.63
2018-11-21T10:17:18.115Z,44.60
2018-11-21T10:19:57.649Z,39.37
2018-11-21T10:22:37.660Z,41.30
2018-11-21T10:25:17.160Z,38.07
2018-11-21T10:27:57.069Z,35.63
2018-11-21T10:30:36.561Z,41.33
2018-11-21T10:33:16.507Z,40.37
2018-11-21T10:35:56.409Z,35.00
2018-11-21T10:38:36.365Z,42.47
2018-11-21T10:41:16.263Z,41.50
2018-11-21T10:43:55.997Z,43.43
2018-11-21T10:46:36.260Z,37.90
2018-11-21T10:49:16.274Z,37.73
2018-11-21T10:51:55.887Z,41.37
2018-11-21T10:54:36.267Z,42.73
2018-11-21T10:57:16.078Z,42.83
2018-11-21T10:59:55.647Z,43.60
2018-11-21T11:02:55.223Z,37.03
2018-11-21T11:05:54.326Z,42.87
2018-11-21T11:09:00.218Z,42.53
2018-11-21T11:12:00.203Z,41.07
2018-11-21T11:14:59.901Z,45.73
2018-11-21T11:17:59.827Z,40.87
2018-11-21T11:20:59.534Z,41.93
2018-11-21T11:24:04.367Z,37.60
2018-11-21T11:27:04.240Z,37.40
2018-11-21T11:30:04.016Z,39.03
2018-11-21T11:33:03.709Z,37.50
2018-11-21T11:36:03.359Z,36.57
2018-11-21T11:39:09.065Z,37.40
2018-11-21T11:42:08.382Z,31.50
2018-11-21T11:45:08.283Z,39.20
2018-11-21T11:48:08.046Z,36.90
2018-11-21T11:51:10.104Z,49.73
2018-11-21T11:54:29.351Z,35.43
2018-11-21T11:57:19.902Z,41.60
2018-11-21T12:00:19.142Z,41.33
2018-11-21T12:03:18.897Z,39.47
2018-11-21T12:06:17.850Z,42.40
2018-11-21T12:09:17.623Z,35.73
2018-11-21T12:12:17.301Z,45.40
2018-11-21T12:15:22.940Z,36.80
2018-11-21T12:18:22.874Z,36.27
2018-11-21T12:21:22.033Z,36.00
2018-11-21T12:24:21.616Z,34.47
2018-11-21T12:27:20.745Z,32.27
2018-11-21T12:30:26.341Z,32.53
2018-11-21T12:33:25.568Z,37.97
2018-11-21T12:36:25.068Z,33.67
2018-11-21T12:39:24.907Z,34.47
2018-11-21T12:42:27.649Z,34.47
2018-11-21T12:45:14.736Z,27.43
2018-11-21T12:48:13.899Z,33.73
2018-11-21T12:51:05.131Z,28.07
2018-11-21T12:54:10.698Z,32.87
2018-11-21T12:57:10.136Z,29.93
2018-11-21T13:00:09.652Z,29.53
2018-11-21T13:03:09.447Z,30.80
2018-11-21T13:05:59.384Z,33.17
2018-11-21T13:09:05.143Z,28.90
2018-11-21T13:11:55.126Z,34.03
2018-11-21T13:14:46.340Z,34.30
2018-11-21T13:17:45.618Z,29.47
2018-11-21T13:20:47.994Z,37.03
2018-11-21T13:23:47.168Z,33.60
2018-11-21T13:26:55.123Z,27.47
2018-11-21T13:29:55.000Z,30.10
2018-11-21T13:32:54.838Z,38.50
2018-11-21T13:35:54.744Z,34.63
2018-11-21T13:38:57.267Z,32.07
2018-11-21T13:41:56.968Z,28.53
2018-11-21T13:45:00.013Z,32.60
2018-11-21T13:48:05.669Z,40.80
2018-11-21T13:51:05.404Z,34.10
2018-11-21T13:54:08.162Z,32.30
2018-11-21T13:56:49.114Z,30.63
2018-11-21T13:59:28.964Z,29.27
2018-11-21T14:02:08.712Z,29.63
2018-11-21T14:04:48.382Z,34.23
2018-11-21T14:07:27.947Z,36.83
2018-11-21T14:10:10.621Z,33.97
2018-11-21T14:12:50.529Z,37.20
2018-11-21T14:15:30.046Z,41.30
2018-11-21T14:18:09.706Z,28.97
2018-11-21T14:20:49.105Z,38.53
2018-11-21T14:23:28.859Z,36.40
2018-11-21T14:26:08.829Z,32.47
2018-11-21T14:28:48.482Z,30.23
2018-11-21T14:31:28.311Z,30.80
2018-11-21T14:34:09.909Z,30.27
2018-11-21T14:36:49.765Z,30.93
2018-11-21T14:39:29.374Z,33.70
2018-11-21T14:42:09.073Z,34.37
2018-11-21T14:44:49.236Z,29.37
2018-11-21T14:47:29.030Z,31.37
2018-11-21T14:50:08.667Z,27.70
2018-11-21T14:52:48.829Z,33.40
2018-11-21T14:55:28.840Z,36.73
2018-11-21T14:58:08.576Z,26.77
2018-11-21T15:00:48.447Z,31.20
2018-11-21T15:03:28.056Z,32.10
2018-11-21T15:06:07.727Z,32.93
2018-11-21T15:08:47.505Z,34.27
2018-11-21T15:11:27.559Z,28.40
2018-11-21T15:14:07.292Z,34.50
2018-11-21T15:16:47.067Z,34.53
2018-11-21T15:19:27.181Z,29.83
2018-11-21T15:22:06.677Z,30.40
2018-11-21T15:24:46.541Z,31.33
2018-11-21T15:27:26.446Z,33.50
2018-11-21T15:30:06.053Z,31.43
2018-11-21T15:32:46.695Z,33.63
2018-11-21T15:35:27.084Z,32.50
2018-11-21T15:38:09.952Z,31.60
2018-11-21T15:40:49.774Z,33.00
2018-11-21T15:43:29.531Z,28.13
2018-11-21T15:46:09.167Z,37.17
2018-11-21T15:48:49.047Z,32.57
2018-11-21T15:51:28.753Z,32.97
2018-11-21T15:54:08.693Z,28.53
2018-11-21T15:56:49.113Z,32.77
2018-11-21T15:59:28.808Z,30.63
2018-11-21T16:02:08.675Z,27.57
2018-11-21T16:04:48.470Z,36.80
2018-11-21T16:07:28.381Z,33.63
2018-11-21T16:10:10.107Z,33.40
2018-11-21T16:12:48.647Z,31.90
2018-11-21T16:15:35.386Z,27.67
2018-11-21T16:18:08.517Z,31.27
2018-11-21T16:20:48.289Z,31.63
2018-11-21T16:23:27.992Z,28.40
2018-11-21T16:26:07.927Z,29.33
2018-11-21T16:28:47.686Z,31.70
2018-11-21T16:31:27.746Z,29.17
2018-11-21T16:34:07.392Z,31.83
2018-11-21T16:36:47.582Z,52.60
2018-11-21T16:39:27.913Z,30.37
2018-11-21T16:42:07.913Z,30.67
2018-11-21T16:44:47.996Z,27.13
2018-11-21T16:47:27.482Z,28.90
2018-11-21T16:50:07.180Z,33.30
2018-11-21T16:52:47.089Z,31.90
2018-11-21T16:55:27.049Z,34.57
2018-11-21T16:58:07.228Z,31.03
2018-11-21T17:00:47.033Z,30.70
2018-11-21T17:03:27.074Z,28.57
2018-11-21T17:06:07.191Z,31.53
2018-11-21T17:08:46.717Z,32.13
2018-11-21T17:11:26.471Z,30.73
2018-11-21T17:14:06.269Z,43.00
2018-11-21T17:16:45.629Z,30.90
2018-11-21T17:19:25.212Z,27.00
2018-11-21T17:22:05.288Z,33.63
2018-11-21T17:24:45.097Z,31.20
2018-11-21T17:27:24.757Z,34.63
2018-11-21T17:30:04.684Z,27.23
2018-11-21T17:32:44.467Z,29.87
2018-11-21T17:35:24.517Z,30.63
2018-11-21T17:38:04.223Z,32.70
2018-11-21T17:40:44.678Z,30.03
2018-11-21T17:43:24.347Z,31.43
2018-11-21T17:46:04.281Z,31.30
2018-11-21T17:48:44.126Z,55.27
2018-11-21T17:51:26.645Z,46.20
2018-11-21T17:54:04.805Z,32.77
2018-11-21T17:56:44.581Z,35.30
2018-11-21T17:59:24.502Z,34.83
2018-11-21T18:02:04.451Z,33.50
2018-11-21T18:04:44.085Z,34.63
2018-11-21T18:07:24.169Z,31.80
2018-11-21T18:10:06.884Z,32.73
2018-11-21T18:12:46.793Z,27.63
2018-11-21T18:15:27.079Z,29.30
2018-11-21T18:18:09.882Z,28.90
2018-11-21T18:20:49.922Z,36.53
2018-11-21T18:23:30.978Z,31.00
2018-11-21T18:26:11.404Z,29.07
2018-11-21T18:28:51.695Z,28.80
2018-11-21T18:31:31.294Z,30.10
2018-11-21T18:34:11.355Z,31.73
2018-11-21T18:36:51.467Z,84.50
2018-11-21T18:39:31.130Z,30.03
2018-11-21T18:42:11.093Z,33.47
2018-11-21T18:44:50.936Z,33.00
2018-11-21T18:47:30.794Z,32.60
2018-11-21T18:50:12.547Z,34.40
2018-11-21T18:52:54.454Z,26.97
2018-11-21T18:55:34.699Z,30.80
2018-11-21T18:58:14.440Z,29.00
2018-11-21T19:00:54.294Z,33.20
2018-11-21T19:03:34.078Z,28.97
2018-11-21T19:06:13.969Z,33.83
2018-11-21T19:08:53.808Z,33.87
2018-11-21T19:11:33.507Z,34.47
2018-11-21T19:14:15.503Z,32.17
2018-11-21T19:16:56.224Z,34.37
2018-11-21T19:19:36.640Z,33.10
2018-11-21T19:22:16.594Z,31.40
2018-11-21T19:24:56.420Z,30.97
2018-11-21T19:27:36.670Z,29.00
2018-11-21T19:30:17.608Z,34.37
2018-11-21T19:32:57.061Z,37.23
2018-11-21T19:35:36.815Z,34.63
2018-11-21T19:38:17.159Z,35.07
2018-11-21T19:40:57.609Z,29.03
2018-11-21T19:43:37.516Z,35.33
2018-11-21T19:46:17.623Z,32.83
2018-11-21T19:48:57.546Z,38.87
2018-11-21T19:51:37.056Z,41.53
2018-11-21T19:54:16.956Z,41.83
2018-11-21T19:56:57.005Z,34.17
2018-11-21T19:59:36.754Z,38.27
2018-11-21T20:02:16.593Z,40.03
2018-11-21T20:04:56.311Z,43.60
2018-11-21T20:07:36.012Z,46.07
2018-11-21T20:10:17.107Z,47.37
2018-11-21T20:12:57.030Z,41.33
2018-11-21T20:15:36.814Z,38.53
2018-11-21T20:18:16.315Z,48.00
2018-11-21T20:20:56.192Z,40.70
2018-11-21T20:23:35.958Z,44.87
2018-11-21T20:26:16.461Z,44.60
2018-11-21T20:28:56.668Z,45.77
2018-11-21T20:31:36.529Z,44.80
2018-11-21T20:34:16.193Z,50.90
2018-11-21T20:36:56.369Z,47.83
2018-11-21T20:39:36.079Z,49.50
2018-11-21T20:42:15.952Z,41.63
2018-11-21T20:44:55.801Z,57.50
2018-11-21T20:47:35.378Z,48.43
2018-11-21T20:50:15.366Z,41.70
2018-11-21T20:52:55.414Z,46.43
2018-11-21T20:55:35.781Z,43.73
2018-11-21T20:58:16.009Z,49.10
2018-11-21T21:00:55.773Z,47.00
2018-11-21T21:03:35.850Z,54.67
2018-11-21T21:06:17.467Z,44.90
2018-11-21T21:08:56.905Z,48.60
2018-11-21T21:11:39.657Z,48.73
2018-11-21T21:14:19.880Z,49.80
2018-11-21T21:16:59.830Z,50.80
2018-11-21T21:19:39.546Z,44.03
2018-11-21T21:22:19.244Z,50.70
2018-11-21T21:24:58.899Z,45.00
2018-11-21T21:27:38.788Z,51.70
2018-11-21T21:30:23.224Z,49.47
2018-11-21T21:33:03.529Z,52.60
2018-11-21T21:35:43.216Z,48.53
2018-11-21T21:38:22.912Z,48.73
2018-11-21T21:41:02.609Z,49.37
2018-11-21T21:43:42.287Z,44.90
2018-11-21T21:46:22.125Z,50.30
2018-11-21T21:49:02.377Z,46.43
2018-11-21T21:51:42.090Z,42.17
2018-11-21T21:54:22.076Z,43.43
2018-11-21T21:57:04.007Z,44.23
2018-11-21T21:59:42.253Z,46.07
2018-11-21T22:02:22.938Z,43.30
2018-11-21T22:05:04.792Z,43.70
2018-11-21T22:07:46.212Z,47.90
2018-11-21T22:10:25.997Z,45.07
2018-11-21T22:13:05.964Z,48.20
2018-11-21T22:15:45.643Z,50.13
2018-11-21T22:18:25.297Z,47.97
2018-11-21T22:21:05.313Z,45.87
2018-11-21T22:23:45.034Z,43.73
2018-11-21T22:26:24.597Z,42.30
2018-11-21T22:29:04.545Z,40.87
2018-11-21T22:31:44.423Z,42.90
2018-11-21T22:34:24.646Z,45.37
2018-11-21T22:37:03.763Z,46.10
2018-11-21T22:39:43.842Z,48.77
2018-11-21T22:42:23.470Z,47.07
2018-11-21T22:45:03.038Z,43.10
2018-11-21T22:47:42.898Z,40.83
2018-11-21T22:50:23.807Z,39.43
2018-11-21T22:53:03.717Z,40.70
2018-11-21T22:55:43.990Z,44.93
2018-11-21T22:58:23.537Z,40.17
2018-11-21T23:01:03.346Z,46.87
2018-11-21T23:03:42.818Z,39.30
2018-11-21T23:06:22.541Z,46.13
2018-11-21T23:09:02.221Z,42.93
2018-11-21T23:11:41.697Z,43.30
2018-11-21T23:14:21.384Z,40.93
2018-11-21T23:17:01.221Z,40.17
2018-11-21T23:19:41.165Z,37.13
2018-11-21T23:22:21.076Z,41.77
2018-11-21T23:25:00.913Z,48.70
2018-11-21T23:27:41.334Z,40.87
2018-11-21T23:30:20.785Z,39.90
2018-11-21T23:33:00.903Z,44.97
2018-11-21T23:35:41.064Z,37.00
2018-11-21T23:38:21.382Z,43.40
2018-11-21T23:41:03.389Z,43.07
2018-11-21T23:43:43.649Z,36.73
2018-11-21T23:46:23.118Z,43.47
2018-11-21T23:49:05.317Z,40.77
2018-11-21T23:51:45.157Z,41.43
2018-11-21T23:54:27.565Z,45.00
2018-11-21T23:57:16.089Z,40.00
2018-11-21T23:59:47.165Z,48.80
